Aeroporto :
LOGIN :

Iscrizione | Disclaimer

   EN    FR    IT 

 










Sommario :    VFR   VFR Marginale   IFR   IFR Intensivo   IFR Molto Intensivo
Visibilità : 
Base nubi : 
>= 8 km
>= 3000ft
5 / 8 km
1000 / 3000 ft
1500m / 5 km
500 / 1000 ft
800 / 1500m
200 / 500 ft
< 800m
< 200 ft
Simboli :   Temporali  Nebbia  Neve Forte  Precipitazioni Forti  Vento > 20 kt
SIGMETs :   Varie  Temporali  Ghiacco  Turbolenza  Onda orograficha  Ceneri Vulcaniche






- Altitudine del aeroporto : 995 ft
- Codice IATA : KTW


EPKT - Katowice

ULTIMO METAR :
  • 250030Z 20009KT 9999 -RA FEW022 OVC030 04/02 Q1005

METARs OBSOLETI :
  • 250000Z 22011KT 9999 -RA BKN028 OVC036 04/01 Q1006 RERA
  • 242330Z 22010KT 9999 -RA FEW006 SCT008 BKN030 04/01 Q1007
  • 242300Z 21015KT 170V230 9999 FEW025 SCT031 OVC040 05/M01 Q1007
  • 242230Z 19010KT 9999 SCT030 BKN038 OVC046 05/M02 Q1007
  • 242200Z 20010KT CAVOK 04/M02 Q1008

TAF TAF EPKT
Valido dal 25 a 00 ore il 26 a 00 ore UTC


242330Z 2500/2524 19017G28KT 9999 OVC033
TEMPO 2500/2503 4000 RA BKN013 OVC030
BECMG 2503/2506 25015G25KT BKN007 OVC013
TEMPO 2503/2515 3000 RADZ BR
BECMG 2512/2515 26012KT
BECMG 2518/2521 BKN020



MetMap, La meteo Aeronautica in un colpo d'occhio ! - Copyright ORBIFLY Dicembre 2007 - Disclaimer

ORBIFLY MET'MAP TEAM :

Programmazione e sviluppo : Alexandra Zaïnal
Concezione : Baudouin d'Aumeries
Aiuto per la programmazione : Marc-Olivier Méhu
Supporto tecnico e logistico : Manuel Goepfert
Aiuto per la traduzione : Arnaldo La Scala

Contatto : metmap@orbifly.com




FONTI E CREDITI :

   NOAA